Time;durP1;ratioP1;P1;durP2;ratioP2;P2;SDS_P1;SDS_P2;PMS_P1;PMS_P2;Temp;Humidity;BMP_temperature;BMP_pressure;BME280_temperature;BME280_humidity;BME280_pressure;Samples;Min_cycle;Max_cycle;Signal;HPM_P1;HPM_P2
2023/09/14 00:00:35;;;;;;;2.33;0.70;;;12.40;99.90;;;;;;5062612;28;20555;-52
2023/09/14 00:03:02;;;;;;;2.70;0.68;;;12.40;99.90;;;;;;5065027;28;20123;-51
2023/09/14 00:05:28;;;;;;;3.72;0.75;;;12.40;99.90;;;;;;5059161;28;20051;-50
2023/09/14 00:07:54;;;;;;;2.08;0.77;;;12.40;99.90;;;;;;5065550;28;20063;-51
2023/09/14 00:10:20;;;;;;;3.38;0.68;;;12.30;99.90;;;;;;5059416;28;20036;-53
2023/09/14 00:12:46;;;;;;;4.20;1.00;;;12.40;99.90;;;;;;5062449;28;20418;-49
2023/09/14 00:15:11;;;;;;;7.05;0.60;;;12.30;99.90;;;;;;5065852;28;20471;-54
2023/09/14 00:17:37;;;;;;;3.50;0.55;;;12.30;99.90;;;;;;5065117;28;20063;-48
2023/09/14 00:20:06;;;;;;;2.47;0.80;;;12.30;99.90;;;;;;5065768;28;20565;-50
2023/09/14 00:22:32;;;;;;;3.17;0.57;;;12.20;99.90;;;;;;5055945;28;20115;-48
2023/09/14 00:24:58;;;;;;;2.55;0.50;;;12.20;99.90;;;;;;5064145;28;20116;-51
2023/09/14 00:27:23;;;;;;;1.63;0.50;;;12.20;99.90;;;;;;5060685;28;20068;-50
2023/09/14 00:29:49;;;;;;;2.07;0.60;;;12.20;99.90;;;;;;5060028;28;20036;-48
2023/09/14 00:32:14;;;;;;;2.65;0.43;;;12.20;99.90;;;;;;5061000;28;20671;-49
2023/09/14 00:34:40;;;;;;;0.47;0.30;;;12.20;99.90;;;;;;5057897;28;20112;-48
2023/09/14 00:37:05;;;;;;;0.52;0.30;;;12.00;99.90;;;;;;5063936;28;20138;-48
2023/09/14 00:39:31;;;;;;;1.40;0.32;;;11.80;99.90;;;;;;5060313;28;20037;-48
2023/09/14 00:41:57;;;;;;;0.68;0.35;;;11.70;99.90;;;;;;5064305;28;20484;-49
2023/09/14 00:44:22;;;;;;;0.80;0.40;;;11.60;99.90;;;;;;5057004;28;20036;-48
2023/09/14 00:46:48;;;;;;;1.90;0.93;;;11.50;99.90;;;;;;5061818;28;20399;-50
2023/09/14 00:49:14;;;;;;;5.38;0.50;;;11.50;99.90;;;;;;5062373;28;20086;-51
2023/09/14 00:51:40;;;;;;;2.30;0.80;;;11.50;99.90;;;;;;5061517;28;20155;-52
2023/09/14 00:54:06;;;;;;;1.55;0.60;;;11.50;99.90;;;;;;5058585;28;20560;-51
2023/09/14 00:56:32;;;;;;;3.95;0.77;;;11.50;99.90;;;;;;5043732;28;20036;-49
2023/09/14 00:58:58;;;;;;;1.15;0.60;;;11.60;99.90;;;;;;5062356;28;20029;-49
2023/09/14 01:01:24;;;;;;;3.65;0.60;;;11.60;99.90;;;;;;5060665;28;20036;-52
2023/09/14 01:03:50;;;;;;;1.20;0.82;;;11.60;99.90;;;;;;5059869;28;20044;-52
2023/09/14 01:06:15;;;;;;;2.65;0.82;;;11.60;99.90;;;;;;5060223;28;20045;-48
2023/09/14 01:08:42;;;;;;;1.30;0.70;;;11.60;99.90;;;;;;5063198;28;20058;-49
2023/09/14 01:11:07;;;;;;;;;;;11.70;99.90;;;;;;5057929;28;20542;-54
2023/09/14 01:13:59;;;;;;;0.55;0.20;;;11.60;99.90;;;;;;5041193;28;20022;-53
2023/09/14 01:16:38;;;;;;;0.20;0.20;;;11.60;99.90;;;;;;5058194;28;20351;-49
2023/09/14 01:19:19;;;;;;;0.50;0.32;;;11.60;99.90;;;;;;5063002;28;20036;-48
2023/09/14 01:22:10;;;;;;;0.90;0.45;;;11.60;99.90;;;;;;5061771;28;20414;-53
2023/09/14 01:24:47;;;;;;;2.05;0.10;;;11.60;99.90;;;;;;5059645;28;20079;-52
2023/09/14 01:27:13;;;;;;;0.30;0.30;;;11.60;99.90;;;;;;5065401;28;20048;-52
2023/09/14 01:29:40;;;;;;;0.30;0.20;;;11.50;99.90;;;;;;5057051;28;20036;-52
2023/09/14 01:32:06;;;;;;;1.00;0.40;;;11.50;99.90;;;;;;5065476;28;20392;-50
2023/09/14 01:34:32;;;;;;;1.50;0.80;;;11.50;99.90;;;;;;5056846;28;20115;-53
2023/09/14 01:37:01;;;;;;;0.60;0.40;;;11.50;99.90;;;;;;5065606;28;20033;-48
2023/09/14 01:39:31;;;;;;;0.60;0.40;;;11.40;99.90;;;;;;5065275;28;20533;-50
2023/09/14 01:41:58;;;;;;;6.18;0.40;;;11.40;99.90;;;;;;5067348;28;20028;-47
2023/09/14 01:44:27;;;;;;;41.72;1.58;;;11.40;99.90;;;;;;5065304;28;20448;-51
2023/09/14 01:46:56;;;;;;;0.40;0.20;;;11.40;99.90;;;;;;5067149;28;20044;-52
2023/09/14 01:49:22;;;;;;;0.40;0.20;;;11.30;99.90;;;;;;5064593;28;20043;-53
2023/09/14 01:51:48;;;;;;;5.57;0.35;;;11.30;99.90;;;;;;5068402;28;20111;-53
2023/09/14 01:54:13;;;;;;;0.43;0.20;;;11.20;99.90;;;;;;5063323;28;20526;-52
2023/09/14 01:56:40;;;;;;;1.15;0.20;;;11.20;99.90;;;;;;5065958;28;20590;-51
2023/09/14 01:59:06;;;;;;;2.35;0.75;;;11.10;99.90;;;;;;5067114;28;20032;-53
2023/09/14 02:01:31;;;;;;;0.97;0.50;;;11.10;99.90;;;;;;5065972;28;20051;-51
2023/09/14 02:03:57;;;;;;;0.90;0.60;;;11.10;99.90;;;;;;5067688;28;20036;-50
2023/09/14 02:06:22;;;;;;;2.55;1.30;;;11.10;99.90;;;;;;5067492;28;20033;-50
2023/09/14 02:08:48;;;;;;;6.40;1.20;;;11.00;99.90;;;;;;5067365;28;20403;-51
2023/09/14 02:11:13;;;;;;;1.00;0.63;;;11.00;99.90;;;;;;5060266;28;20041;-54
2023/09/14 02:13:40;;;;;;;3.22;0.80;;;11.00;99.90;;;;;;5064374;28;20516;-52
2023/09/14 02:16:06;;;;;;;3.13;0.85;;;11.00;99.90;;;;;;5068513;28;20074;-51
2023/09/14 02:18:31;;;;;;;2.17;1.52;;;11.10;99.90;;;;;;5066368;28;20201;-50
2023/09/14 02:20:57;;;;;;;1.63;0.60;;;11.10;99.90;;;;;;5064865;28;20040;-52
2023/09/14 02:23:23;;;;;;;0.82;0.50;;;11.10;99.90;;;;;;5067804;28;20043;-54
2023/09/14 02:25:49;;;;;;;0.45;0.30;;;11.10;99.90;;;;;;5063601;28;20137;-53
2023/09/14 02:28:15;;;;;;;0.45;0.30;;;11.00;99.90;;;;;;5066503;28;20044;-52
2023/09/14 02:30:41;;;;;;;0.90;0.22;;;10.90;99.90;;;;;;5063283;28;20041;-51
2023/09/14 02:33:07;;;;;;;0.40;0.30;;;10.90;99.90;;;;;;5068509;28;20052;-53
2023/09/14 02:35:38;;;;;;;1.08;0.40;;;10.80;99.90;;;;;;5065462;28;20308;-49
2023/09/14 02:38:04;;;;;;;2.88;0.50;;;10.80;99.90;;;;;;5068427;28;20037;-50
2023/09/14 02:40:31;;;;;;;8.98;0.63;;;10.70;99.90;;;;;;5063187;28;20127;-47
2023/09/14 02:42:57;;;;;;;1.15;0.30;;;10.70;99.90;;;;;;5058006;28;20036;-49
2023/09/14 02:45:23;;;;;;;0.30;0.20;;;10.70;99.90;;;;;;5063657;28;20037;-50
2023/09/14 02:47:49;;;;;;;7.97;0.30;;;10.70;99.90;;;;;;5063082;28;20072;-53
2023/09/14 02:50:15;;;;;;;1.80;0.03;;;10.70;99.90;;;;;;5066736;28;20171;-48
2023/09/14 02:52:40;;;;;;;0.10;0.00;;;10.70;99.90;;;;;;5066285;28;20037;-49
2023/09/14 02:55:07;;;;;;;0.25;0.20;;;10.60;99.90;;;;;;5066452;28;20036;-48
2023/09/14 02:57:32;;;;;;;0.63;0.30;;;10.50;99.90;;;;;;5069371;28;20072;-48
2023/09/14 02:59:58;;;;;;;0.68;0.30;;;10.50;99.90;;;;;;5071549;28;20040;-47
2023/09/14 03:02:24;;;;;;;0.57;0.30;;;10.50;99.90;;;;;;5070478;28;20052;-48
2023/09/14 03:04:50;;;;;;;1.70;0.20;;;10.50;99.90;;;;;;5067049;28;20072;-47
2023/09/14 03:07:16;;;;;;;0.80;0.35;;;10.50;99.90;;;;;;5068115;28;20076;-46
2023/09/14 03:09:42;;;;;;;1.17;0.30;;;10.50;99.90;;;;;;5065750;28;20357;-46
2023/09/14 03:12:08;;;;;;;1.90;0.10;;;10.50;99.90;;;;;;5063038;28;20040;-48
2023/09/14 03:14:34;;;;;;;0.75;0.30;;;10.50;99.90;;;;;;5064003;28;20033;-48
2023/09/14 03:17:00;;;;;;;1.60;0.68;;;10.50;99.90;;;;;;5064603;28;20499;-49
2023/09/14 03:19:26;;;;;;;1.88;0.50;;;10.60;99.90;;;;;;5063623;28;20097;-47
2023/09/14 03:21:51;;;;;;;1.10;0.55;;;10.60;99.90;;;;;;5063156;28;20044;-48
2023/09/14 03:24:17;;;;;;;1.40;0.70;;;10.60;99.90;;;;;;5067630;28;20070;-48
2023/09/14 03:26:43;;;;;;;1.02;0.50;;;10.60;99.90;;;;;;5061749;28;20290;-47
2023/09/14 03:29:09;;;;;;;0.15;0.10;;;10.60;99.90;;;;;;5063113;28;20043;-49
2023/09/14 03:31:37;;;;;;;0.88;0.35;;;10.60;99.90;;;;;;5061751;28;20133;-49
2023/09/14 03:34:04;;;;;;;0.20;0.20;;;10.50;99.90;;;;;;5064365;28;20385;-47
2023/09/14 03:36:30;;;;;;;0.13;0.10;;;10.50;99.90;;;;;;5060473;28;20076;-47
2023/09/14 03:38:55;;;;;;;0.30;0.20;;;10.40;99.90;;;;;;5062207;28;20129;-48
2023/09/14 03:41:21;;;;;;;0.30;0.15;;;10.30;99.90;;;;;;5061981;28;20400;-53
2023/09/14 03:43:46;;;;;;;0.52;0.30;;;10.30;99.90;;;;;;5066259;28;20033;-53
2023/09/14 03:46:14;;;;;;;4.70;0.43;;;10.20;99.90;;;;;;5064778;28;20055;-53
2023/09/14 03:48:40;;;;;;;2.63;0.40;;;10.10;99.90;;;;;;5065987;28;20279;-53
2023/09/14 03:51:07;;;;;;;1.23;0.63;;;10.00;99.90;;;;;;5064658;28;20043;-53
2023/09/14 03:53:32;;;;;;;1.17;0.82;;;9.90;99.90;;;;;;5066139;28;20099;-50
2023/09/14 03:56:03;;;;;;;2.92;1.10;;;9.80;99.90;;;;;;5065115;28;20518;-48
2023/09/14 03:58:29;;;;;;;2.28;0.80;;;9.90;99.90;;;;;;5065414;28;20050;-54
2023/09/14 04:00:55;;;;;;;0.70;0.60;;;9.90;99.90;;;;;;5065066;28;20041;-50
2023/09/14 04:03:21;;;;;;;0.90;0.65;;;10.00;99.90;;;;;;5066662;28;20046;-49
2023/09/14 04:05:47;;;;;;;0.50;0.40;;;10.00;99.90;;;;;;5062732;28;20458;-50
2023/09/14 04:08:12;;;;;;;1.50;0.85;;;10.10;99.90;;;;;;5067104;28;20036;-52
2023/09/14 04:10:39;;;;;;;0.70;0.60;;;10.20;99.90;;;;;;5056066;28;20503;-49
2023/09/14 04:13:27;;;;;;;0.75;0.30;;;10.20;99.90;;;;;;5066659;28;20123;-48
2023/09/14 04:15:52;;;;;;;;;;;10.20;99.90;;;;;;5063299;28;20043;-53
2023/09/14 04:18:18;;;;;;;0.40;0.30;;;10.20;99.90;;;;;;5066658;28;20011;-48
2023/09/14 04:20:44;;;;;;;5.25;0.57;;;10.20;99.90;;;;;;5065072;28;20041;-50
2023/09/14 04:23:09;;;;;;;9.40;0.82;;;10.20;99.90;;;;;;5064515;28;20036;-51
2023/09/14 04:25:36;;;;;;;5.68;1.08;;;10.10;99.90;;;;;;5065588;28;20044;-50
2023/09/14 04:28:02;;;;;;;4.78;0.65;;;10.10;99.90;;;;;;5063936;28;20062;-49
2023/09/14 04:30:28;;;;;;;0.50;0.47;;;10.10;99.90;;;;;;5062423;28;20033;-50
2023/09/14 04:32:54;;;;;;;0.32;0.30;;;10.00;99.90;;;;;;5059919;28;20545;-50
2023/09/14 04:35:19;;;;;;;3.40;0.30;;;10.00;99.90;;;;;;5066689;28;20141;-50
2023/09/14 04:37:45;;;;;;;5.23;0.30;;;10.00;99.90;;;;;;5063538;28;20059;-49
2023/09/14 04:40:11;;;;;;;1.60;0.30;;;9.90;99.90;;;;;;5063635;28;20293;-51
2023/09/14 04:42:36;;;;;;;13.15;0.98;;;9.90;99.90;;;;;;5061952;28;20123;-53
2023/09/14 04:45:03;;;;;;;45.10;2.38;;;9.80;99.90;;;;;;5062590;28;20037;-48
2023/09/14 04:47:28;;;;;;;1.70;0.80;;;9.80;99.90;;;;;;5061550;28;20403;-50
2023/09/14 04:49:54;;;;;;;5.68;0.88;;;9.80;99.90;;;;;;5056216;28;20040;-48
2023/09/14 04:52:19;;;;;;;16.60;0.67;;;9.80;99.90;;;;;;5064163;28;20073;-51
2023/09/14 04:54:45;;;;;;;3.08;0.32;;;9.80;99.90;;;;;;5065570;28;20036;-52
2023/09/14 04:57:10;;;;;;;3.75;0.30;;;9.70;99.90;;;;;;5064531;28;20044;-48
2023/09/14 04:59:36;;;;;;;1.00;0.50;;;9.60;99.90;;;;;;5064301;28;20029;-51
2023/09/14 05:02:02;;;;;;;5.33;0.83;;;9.50;99.90;;;;;;5065511;28;20278;-53
2023/09/14 05:04:27;;;;;;;24.52;1.73;;;9.40;99.90;;;;;;5065104;28;20075;-48
2023/09/14 05:06:53;;;;;;;37.63;3.37;;;9.30;99.90;;;;;;5066852;28;20043;-53
2023/09/14 05:09:18;;;;;;;42.13;2.63;;;9.30;99.90;;;;;;5066177;28;20546;-52
2023/09/14 05:11:44;;;;;;;61.10;2.87;;;9.30;99.90;;;;;;5062743;28;20295;-53
2023/09/14 05:14:09;;;;;;;5.37;1.43;;;9.30;99.90;;;;;;5059564;28;20098;-48
2023/09/14 05:16:35;;;;;;;31.65;2.95;;;9.30;99.90;;;;;;5068643;28;20040;-49
2023/09/14 05:19:01;;;;;;;1.93;0.97;;;9.30;99.90;;;;;;5070385;28;20036;-50
2023/09/14 05:21:26;;;;;;;47.78;2.85;;;9.30;99.90;;;;;;5069519;28;20037;-53
2023/09/14 05:23:52;;;;;;;64.97;3.33;;;9.30;99.90;;;;;;5063011;28;20491;-52
2023/09/14 05:26:18;;;;;;;1.67;1.57;;;9.30;99.90;;;;;;5070842;28;20090;-52
2023/09/14 05:28:43;;;;;;;80.67;4.30;;;9.30;99.90;;;;;;5066820;28;20454;-50
2023/09/14 05:31:09;;;;;;;7.80;1.97;;;9.30;99.90;;;;;;5070398;28;20344;-50
2023/09/14 05:33:34;;;;;;;2.50;1.60;;;9.40;99.90;;;;;;5065026;28;20093;-53
2023/09/14 05:36:00;;;;;;;3.77;1.40;;;9.40;99.90;;;;;;5068445;28;20310;-51
2023/09/14 05:38:26;;;;;;;4.13;1.40;;;9.40;99.90;;;;;;5062110;28;20288;-50
2023/09/14 05:40:52;;;;;;;11.63;2.08;;;9.40;99.90;;;;;;5074156;28;20278;-48
2023/09/14 05:43:18;;;;;;;18.83;2.03;;;9.50;99.90;;;;;;5074573;28;20410;-48
2023/09/14 05:45:43;;;;;;;44.23;3.47;;;9.50;99.90;;;;;;5070046;28;20076;-49
2023/09/14 05:48:09;;;;;;;0.88;0.77;;;9.50;99.90;;;;;;5066869;28;20112;-50
2023/09/14 05:50:35;;;;;;;10.13;3.25;;;9.50;99.90;;;;;;5068936;28;20101;-48
2023/09/14 05:53:02;;;;;;;21.92;3.58;;;9.60;99.90;;;;;;5063695;28;20068;-48
2023/09/14 05:55:27;;;;;;;;;;;9.60;99.90;;;;;;5066594;28;20044;-50
2023/09/14 05:57:54;;;;;;;4.05;3.08;;;9.60;99.90;;;;;;5066096;28;19923;-48
2023/09/14 06:00:20;;;;;;;2.90;2.30;;;9.70;99.90;;;;;;5066164;28;20079;-48
2023/09/14 06:02:45;;;;;;;2.83;1.60;;;9.80;99.90;;;;;;5056472;28;20068;-48
2023/09/14 06:05:11;;;;;;;3.03;0.95;;;10.00;99.90;;;;;;5060671;28;20051;-49
2023/09/14 06:07:37;;;;;;;3.55;1.65;;;10.30;99.90;;;;;;5060235;28;20040;-47
2023/09/14 06:10:03;;;;;;;1.50;1.40;;;10.60;99.90;;;;;;5066716;28;20402;-50
2023/09/14 06:12:29;;;;;;;1.08;0.98;;;10.80;99.90;;;;;;5068866;28;20032;-49
2023/09/14 06:14:56;;;;;;;2.63;1.00;;;11.00;99.90;;;;;;5064943;28;20565;-48
2023/09/14 06:17:22;;;;;;;1.63;1.00;;;11.20;99.90;;;;;;5066599;28;20044;-48
2023/09/14 06:19:47;;;;;;;2.30;1.20;;;11.30;99.90;;;;;;5066474;28;20032;-50
2023/09/14 06:22:13;;;;;;;1.83;1.30;;;11.40;99.90;;;;;;5067925;28;20283;-48
2023/09/14 06:24:38;;;;;;;4.07;2.20;;;11.40;99.90;;;;;;5062814;28;20877;-48
2023/09/14 06:27:04;;;;;;;4.20;2.38;;;11.40;99.90;;;;;;5061069;28;20286;-47
2023/09/14 06:29:30;;;;;;;2.22;2.03;;;11.40;99.90;;;;;;5056522;28;20482;-47
2023/09/14 06:31:55;;;;;;;3.33;1.75;;;11.40;99.90;;;;;;5054667;28;20047;-53
2023/09/14 06:34:21;;;;;;;2.67;2.42;;;11.40;99.90;;;;;;5053024;28;20064;-51
2023/09/14 06:36:47;;;;;;;2.58;2.38;;;11.50;99.90;;;;;;5049001;28;20631;-48
2023/09/14 06:39:13;;;;;;;2.28;1.95;;;11.50;99.90;;;;;;5047941;28;20033;-51
2023/09/14 06:41:39;;;;;;;5.25;2.38;;;11.60;99.90;;;;;;5046821;28;20300;-53
2023/09/14 06:44:05;;;;;;;4.43;2.53;;;11.60;99.90;;;;;;5054431;28;20261;-49
2023/09/14 06:46:31;;;;;;;5.72;2.75;;;11.70;99.90;;;;;;5045128;28;20087;-51
2023/09/14 06:48:56;;;;;;;4.95;2.72;;;11.80;99.90;;;;;;5051290;28;20032;-50
2023/09/14 06:51:22;;;;;;;7.60;3.08;;;11.90;99.90;;;;;;5050080;28;20036;-49
2023/09/14 06:53:48;;;;;;;5.95;4.15;;;11.90;99.90;;;;;;5046155;28;20090;-49
2023/09/14 06:56:15;;;;;;;16.85;4.03;;;12.00;99.90;;;;;;5043421;28;20072;-49
2023/09/14 06:58:40;;;;;;;12.48;3.85;;;12.10;99.90;;;;;;5046014;28;20447;-50
2023/09/14 07:01:06;;;;;;;8.88;3.53;;;12.20;99.90;;;;;;5046772;28;20049;-51
2023/09/14 07:03:34;;;;;;;21.80;5.05;;;12.30;99.90;;;;;;5042946;28;20037;-48
2023/09/14 07:06:00;;;;;;;5.85;3.25;;;12.40;99.90;;;;;;5047733;28;20595;-53
2023/09/14 07:08:25;;;;;;;6.10;3.25;;;12.50;99.90;;;;;;5049857;28;20040;-49
2023/09/14 07:10:51;;;;;;;5.65;3.55;;;12.50;99.90;;;;;;5050176;28;20572;-49
2023/09/14 07:13:17;;;;;;;6.05;3.92;;;12.60;99.90;;;;;;5053968;28;20033;-51
2023/09/14 07:15:43;;;;;;;7.28;3.35;;;12.70;99.90;;;;;;5050267;28;20029;-51
2023/09/14 07:18:23;;;;;;;5.45;3.10;;;12.90;99.90;;;;;;5054422;28;20025;-49
2023/09/14 07:20:49;;;;;;;6.13;3.10;;;13.00;99.90;;;;;;5053975;28;20033;-51
2023/09/14 07:23:15;;;;;;;4.85;3.47;;;13.10;99.90;;;;;;5054103;28;20035;-50
2023/09/14 07:25:40;;;;;;;7.32;3.78;;;13.20;99.90;;;;;;5053633;28;20040;-47
2023/09/14 07:28:06;;;;;;;9.07;3.73;;;13.40;99.90;;;;;;5058164;28;20037;-51
2023/09/14 07:30:34;;;;;;;6.15;3.47;;;13.50;99.90;;;;;;5036779;28;20387;-48
2023/09/14 07:33:00;;;;;;;8.02;3.47;;;13.60;99.90;;;;;;5052240;28;20485;-49
2023/09/14 07:35:26;;;;;;;10.60;4.57;;;13.70;99.90;;;;;;5053422;28;20112;-49
2023/09/14 07:37:51;;;;;;;8.43;3.00;;;13.80;99.90;;;;;;5053470;28;20104;-49
2023/09/14 07:40:17;;;;;;;9.68;2.60;;;13.90;99.90;;;;;;5054797;28;20033;-50
2023/09/14 07:42:42;;;;;;;6.53;2.63;;;14.00;99.90;;;;;;5050844;28;20075;-47
2023/09/14 07:45:08;;;;;;;10.38;2.55;;;14.10;99.90;;;;;;5052155;28;20458;-50
2023/09/14 07:47:34;;;;;;;9.90;2.47;;;14.20;99.90;;;;;;5047368;28;20044;-47
2023/09/14 07:50:00;;;;;;;9.30;2.35;;;14.30;99.90;;;;;;5051403;28;20123;-51
2023/09/14 07:52:25;;;;;;;5.25;2.83;;;14.40;99.90;;;;;;5043585;28;20072;-49
2023/09/14 07:54:51;;;;;;;4.95;1.80;;;14.50;99.90;;;;;;5042763;28;20044;-48
2023/09/14 07:57:17;;;;;;;3.88;1.55;;;14.60;99.90;;;;;;5050088;28;20040;-48
2023/09/14 07:59:43;;;;;;;8.88;1.75;;;14.60;99.90;;;;;;5049618;28;20072;-51
2023/09/14 08:02:08;;;;;;;12.55;1.83;;;14.70;99.90;;;;;;5045391;28;20480;-53
2023/09/14 08:04:34;;;;;;;6.95;1.52;;;14.80;99.90;;;;;;5044913;28;20060;-47
2023/09/14 08:06:59;;;;;;;6.78;1.30;;;14.80;99.90;;;;;;5046759;28;20067;-51
2023/09/14 08:09:26;;;;;;;7.18;2.20;;;14.90;99.90;;;;;;5050035;28;20048;-49
2023/09/14 08:11:51;;;;;;;5.72;1.70;;;14.90;99.90;;;;;;5051041;28;20053;-50
2023/09/14 08:14:17;;;;;;;3.65;1.60;;;15.00;99.90;;;;;;5044219;28;20063;-53
2023/09/14 08:16:43;;;;;;;8.88;1.67;;;15.10;99.90;;;;;;5047273;28;20040;-48
2023/09/14 08:19:08;;;;;;;7.00;1.92;;;15.20;99.90;;;;;;5047754;28;20035;-47
2023/09/14 08:21:34;;;;;;;4.65;1.33;;;15.30;99.90;;;;;;5050452;28;20029;-51
2023/09/14 08:23:59;;;;;;;8.50;1.90;;;15.40;99.90;;;;;;5048726;28;20049;-48
2023/09/14 08:26:25;;;;;;;8.00;1.80;;;15.50;99.90;;;;;;5051527;28;20033;-49
2023/09/14 08:28:51;;;;;;;5.07;1.13;;;15.60;99.90;;;;;;5047891;28;20029;-48
2023/09/14 08:31:17;;;;;;;5.50;1.15;;;15.70;99.90;;;;;;5051261;28;20044;-48
2023/09/14 08:33:42;;;;;;;5.90;0.95;;;15.80;99.90;;;;;;5050523;28;20557;-49
2023/09/14 08:36:08;;;;;;;7.15;1.05;;;15.90;99.90;;;;;;5048943;28;20357;-49
2023/09/14 08:38:33;;;;;;;7.45;0.90;;;16.00;99.90;;;;;;5045159;28;20091;-49
2023/09/14 08:41:09;;;;;;;6.93;0.90;;;16.10;99.90;;;;;;5056693;28;20045;-49
2023/09/14 08:43:35;;;;;;;9.37;1.10;;;16.20;99.90;;;;;;5050790;28;20033;-48
2023/09/14 08:46:02;;;;;;;6.22;1.40;;;16.20;99.90;;;;;;5049978;28;20414;-48
2023/09/14 08:48:30;;;;;;;8.68;1.15;;;16.30;99.90;;;;;;5049319;28;20037;-48
2023/09/14 08:50:58;;;;;;;11.35;0.95;;;16.30;99.90;;;;;;5052216;28;20041;-49
2023/09/14 08:53:24;;;;;;;3.53;0.85;;;16.30;99.90;;;;;;5051000;28;20080;-50
2023/09/14 08:55:51;;;;;;;4.07;0.85;;;16.40;99.90;;;;;;5058253;28;20044;-47
2023/09/14 08:58:18;;;;;;;;;;;16.50;99.90;;;;;;5052076;28;20045;-49
2023/09/14 09:00:46;;;;;;;6.97;0.77;;;16.50;99.90;;;;;;5046726;28;19987;-51
2023/09/14 09:03:12;;;;;;;5.85;0.80;;;16.60;99.90;;;;;;5052319;28;20048;-50
2023/09/14 09:05:40;;;;;;;5.63;0.82;;;16.70;99.90;;;;;;5059009;28;20041;-53
2023/09/14 09:08:09;;;;;;;7.10;0.80;;;16.70;99.90;;;;;;5054165;28;20051;-48
2023/09/14 09:10:36;;;;;;;7.32;1.65;;;16.80;99.90;;;;;;5064887;28;20051;-51
2023/09/14 09:13:03;;;;;;;8.00;1.23;;;16.80;99.90;;;;;;5062089;28;20524;-53
2023/09/14 09:15:31;;;;;;;4.40;0.70;;;16.70;99.90;;;;;;5060262;28;20047;-48
2023/09/14 09:18:07;;;;;;;3.25;0.55;;;16.70;99.90;;;;;;5069843;28;20044;-49
2023/09/14 09:20:35;;;;;;;5.35;0.75;;;16.70;99.90;;;;;;5066724;28;20547;-52
2023/09/14 09:23:01;;;;;;;7.40;0.80;;;16.80;99.90;;;;;;5065501;28;20037;-48
2023/09/14 09:25:29;;;;;;;;;;;16.90;99.90;;;;;;5060750;28;20041;-50
2023/09/14 09:27:59;;;;;;;5.15;1.23;;;17.00;99.90;;;;;;5055241;28;19924;-51
2023/09/14 09:30:35;;;;;;;2.83;0.70;;;17.00;99.90;;;;;;5054760;28;20036;-50
2023/09/14 09:33:02;;;;;;;6.03;0.82;;;17.00;99.90;;;;;;5062650;28;20040;-47
2023/09/14 09:35:29;;;;;;;3.17;0.90;;;17.00;99.90;;;;;;5056780;28;20494;-51
2023/09/14 09:37:57;;;;;;;9.70;1.13;;;17.10;99.90;;;;;;5056917;28;20120;-49
2023/09/14 09:40:27;;;;;;;6.75;0.93;;;17.10;99.90;;;;;;5055802;28;20405;-49
2023/09/14 09:42:54;;;;;;;3.88;0.90;;;17.10;99.90;;;;;;5064118;28;20093;-48
2023/09/14 09:45:23;;;;;;;4.50;1.08;;;17.20;99.90;;;;;;5070497;28;20036;-49
2023/09/14 09:47:49;;;;;;;3.75;0.90;;;17.30;99.90;;;;;;5064372;28;20043;-49
2023/09/14 09:50:19;;;;;;;6.45;1.15;;;17.40;99.90;;;;;;5071523;28;20090;-51
2023/09/14 09:52:46;;;;;;;9.15;1.20;;;17.50;99.90;;;;;;5067979;28;20049;-48
2023/09/14 09:55:28;;;;;;;5.63;0.57;;;17.60;99.90;;;;;;5071951;28;20067;-51
2023/09/14 09:57:57;;;;;;;5.85;0.60;;;17.60;99.90;;;;;;5071118;28;20055;-54
2023/09/14 10:00:31;;;;;;;2.58;0.65;;;17.60;99.90;;;;;;5059936;28;20047;-49
2023/09/14 10:02:57;;;;;;;5.28;1.65;;;17.60;99.90;;;;;;5059981;28;20040;-50
2023/09/14 10:05:50;;;;;;;5.15;0.85;;;17.60;99.90;;;;;;5068665;28;20086;-49
2023/09/14 10:08:20;;;;;;;3.47;0.40;;;17.70;99.90;;;;;;5062643;28;20108;-50
2023/09/14 10:10:51;;;;;;;4.20;0.90;;;17.70;99.90;;;;;;5060804;28;20433;-50
2023/09/14 10:13:24;;;;;;;4.30;0.77;;;17.60;99.90;;;;;;5066617;28;20048;-50
2023/09/14 10:15:56;;;;;;;3.35;0.82;;;17.50;99.90;;;;;;5038976;28;20036;-46
2023/09/14 10:18:24;;;;;;;10.82;0.75;;;17.50;99.90;;;;;;5051667;28;20662;-49
2023/09/14 10:20:51;;;;;;;4.15;1.02;;;17.60;99.90;;;;;;5048081;28;20080;-49
2023/09/14 10:23:19;;;;;;;6.40;1.15;;;17.70;99.90;;;;;;5054387;28;20040;-48
2023/09/14 10:25:46;;;;;;;9.35;1.08;;;17.70;99.90;;;;;;5064738;28;20507;-51
2023/09/14 10:28:14;;;;;;;4.80;1.13;;;17.80;99.90;;;;;;5062387;28;20037;-48
2023/09/14 10:30:39;;;;;;;6.95;1.45;;;17.90;99.90;;;;;;5054790;28;20064;-48
2023/09/14 10:33:07;;;;;;;7.53;1.00;;;17.90;99.90;;;;;;5066129;28;20041;-48
2023/09/14 10:35:33;;;;;;;4.25;0.98;;;17.90;99.90;;;;;;5061094;28;20502;-48
2023/09/14 10:38:01;;;;;;;3.00;0.63;;;18.00;99.90;;;;;;5055673;28;20118;-51
2023/09/14 10:40:28;;;;;;;6.72;1.10;;;18.10;99.90;;;;;;5056950;28;20040;-49
2023/09/14 10:42:54;;;;;;;5.40;0.68;;;18.30;99.90;;;;;;5061112;28;20049;-51
2023/09/14 10:45:20;;;;;;;4.97;0.70;;;18.30;99.90;;;;;;5057496;28;20042;-50
2023/09/14 10:47:49;;;;;;;4.80;0.88;;;18.30;99.90;;;;;;5065763;28;20457;-53
2023/09/14 10:50:16;;;;;;;5.63;0.93;;;18.40;99.90;;;;;;5056165;28;20041;-54
2023/09/14 10:52:42;;;;;;;3.65;0.70;;;18.50;99.90;;;;;;5057628;28;20040;-50
2023/09/14 10:55:09;;;;;;;5.80;1.10;;;18.60;99.90;;;;;;5053384;28;20032;-54
2023/09/14 10:57:38;;;;;;;3.05;0.98;;;18.60;99.90;;;;;;5052963;28;20494;-49
2023/09/14 11:00:05;;;;;;;8.88;1.42;;;18.60;99.90;;;;;;5048487;28;20057;-49
2023/09/14 11:02:39;;;;;;;7.32;1.10;;;18.60;99.90;;;;;;5060634;28;20032;-51
2023/09/14 11:05:15;;;;;;;3.10;0.57;;;18.70;99.90;;;;;;5046048;28;20120;-53
2023/09/14 11:07:44;;;;;;;6.13;0.40;;;18.70;99.90;;;;;;5049409;28;20033;-50
2023/09/14 11:10:15;;;;;;;3.65;0.95;;;18.80;99.90;;;;;;5051198;28;20249;-51
2023/09/14 11:12:41;;;;;;;2.80;0.70;;;18.90;99.90;;;;;;5058435;28;20376;-51
2023/09/14 11:15:32;;;;;;;6.43;0.98;;;19.00;99.90;;;;;;5059288;28;20086;-47
2023/09/14 11:17:58;;;;;;;2.80;0.93;;;18.90;99.70;;;;;;5047879;28;20041;-50
2023/09/14 11:20:24;;;;;;;7.05;0.95;;;18.90;99.80;;;;;;5054595;28;20044;-53
2023/09/14 11:22:52;;;;;;;2.47;0.65;;;18.90;99.70;;;;;;5049183;28;20043;-50
2023/09/14 11:25:41;;;;;;;7.18;0.80;;;18.80;99.90;;;;;;5055514;28;20045;-50
2023/09/14 11:28:21;;;;;;;4.15;1.10;;;18.70;99.80;;;;;;5054888;28;20051;-48
2023/09/14 11:30:48;;;;;;;5.72;0.88;;;18.70;99.60;;;;;;5067810;28;20503;-49
2023/09/14 11:33:15;;;;;;;7.68;1.30;;;18.80;99.90;;;;;;5065880;28;20047;-48
2023/09/14 11:35:46;;;;;;;6.35;0.80;;;19.00;99.90;;;;;;5067261;28;20032;-50
2023/09/14 11:38:16;;;;;;;2.92;0.75;;;19.00;99.60;;;;;;5065877;28;20054;-53
2023/09/14 11:40:43;;;;;;;4.82;0.63;;;19.10;99.70;;;;;;5068671;28;20510;-53
2023/09/14 11:46:03;;;;;;;4.88;0.73;;;19.10;99.50;;;;;;5069802;28;20045;-49
2023/09/14 11:48:32;;;;;;;3.88;0.70;;;19.00;99.20;;;;;;5068040;28;20495;-50
2023/09/14 11:51:02;;;;;;;11.23;2.08;;;19.00;99.20;;;;;;5070013;28;20478;-52
2023/09/14 11:53:31;;;;;;;6.03;1.00;;;19.00;99.10;;;;;;5062214;28;20044;-49
2023/09/14 11:55:57;;;;;;;9.25;1.42;;;19.00;99.40;;;;;;5067270;28;20043;-50
2023/09/14 11:58:23;;;;;;;6.50;1.15;;;19.00;99.40;;;;;;5062337;28;20032;-47
2023/09/14 12:00:54;;;;;;;6.50;1.45;;;19.00;98.90;;;;;;5063145;28;20119;-47
2023/09/14 12:03:21;;;;;;;9.65;0.90;;;19.00;99.40;;;;;;5063392;28;20052;-51
2023/09/14 12:05:49;;;;;;;;;;;19.10;99.30;;;;;;5061140;28;20407;-53
2023/09/14 12:08:16;;;;;;;6.88;1.20;;;19.20;99.30;;;;;;5062170;28;19916;-50
2023/09/14 12:10:43;;;;;;;6.22;1.17;;;19.30;99.10;;;;;;5067727;28;20036;-47
2023/09/14 12:13:14;;;;;;;3.58;0.82;;;19.40;99.40;;;;;;5065001;28;20127;-49
2023/09/14 12:15:45;;;;;;;4.43;0.90;;;19.50;99.20;;;;;;5067399;28;21341;-49
2023/09/14 12:18:13;;;;;;;5.18;1.15;;;19.60;98.50;;;;;;5066450;28;20051;-52
2023/09/14 12:20:43;;;;;;;7.65;1.00;;;19.50;98.20;;;;;;5069226;28;20037;-52
2023/09/14 12:23:11;;;;;;;4.68;1.10;;;19.60;98.70;;;;;;5062374;28;20527;-49
2023/09/14 12:25:38;;;;;;;9.00;1.30;;;19.70;98.90;;;;;;5065678;28;20045;-50
2023/09/14 12:28:07;;;;;;;4.78;0.88;;;19.70;98.60;;;;;;5068137;28;20040;-49
2023/09/14 12:30:34;;;;;;;4.28;1.15;;;19.80;98.40;;;;;;5068832;28;20060;-52
2023/09/14 12:33:02;;;;;;;3.58;0.80;;;19.80;98.00;;;;;;5065017;28;20127;-49
2023/09/14 12:35:29;;;;;;;4.18;1.42;;;19.70;97.10;;;;;;5062901;28;20048;-53
2023/09/14 12:38:03;;;;;;;3.83;0.88;;;19.70;97.30;;;;;;5063858;28;20048;-50
2023/09/14 12:40:33;;;;;;;12.07;1.67;;;19.70;97.30;;;;;;5049021;28;20166;-52
2023/09/14 12:43:02;;;;;;;6.80;1.00;;;19.80;97.50;;;;;;5066146;28;20037;-51
2023/09/14 12:45:28;;;;;;;5.72;1.17;;;19.80;97.30;;;;;;5069381;28;20138;-53
2023/09/14 12:47:54;;;;;;;3.88;0.93;;;19.70;97.20;;;;;;5063166;28;20549;-49
2023/09/14 12:50:19;;;;;;;8.18;1.33;;;19.70;97.30;;;;;;5068314;28;20041;-50